Time;durP1;ratioP1;P1;durP2;ratioP2;P2;SDS_P1;SDS_P2;PMS_P1;PMS_P2;Temp;Humidity;BMP_temperature;BMP_pressure;BME280_temperature;BME280_humidity;BME280_pressure;Samples;Min_cycle;Max_cycle;Signal;HPM_P1;HPM_P2
2021/07/30 00:02:23;;;;;;;12.63;5.28;;;;;;;;;;5046417;28;40343;-79
2021/07/30 00:04:49;;;;;;;10.20;4.80;;;;;;;;;;5046849;28;39793;-79
2021/07/30 00:07:16;;;;;;;10.20;4.88;;;;;;;;;;5028960;28;39114;-79
2021/07/30 00:09:42;;;;;;;10.80;5.25;;;;;;;;;;5048697;28;36467;-79
2021/07/30 00:12:09;;;;;;;10.65;5.32;;;;;;;;;;5028635;28;39682;-79
2021/07/30 00:14:35;;;;;;;13.27;5.70;;;;;;;;;;5031175;28;39309;-80
2021/07/30 00:17:01;;;;;;;8.82;5.25;;;;;;;;;;5049078;28;38962;-79
2021/07/30 00:19:28;;;;;;;13.95;5.97;;;;;;;;;;5048449;28;50447;-79
2021/07/30 00:21:54;;;;;;;13.35;5.05;;;;;;;;;;5049387;28;38488;-79
2021/07/30 00:24:20;;;;;;;12.52;5.50;;;;;;;;;;5030042;28;38524;-79
2021/07/30 00:26:48;;;;;;;10.07;4.53;;;;;;;;;;5047478;28;38088;-79
2021/07/30 00:29:15;;;;;;;10.15;5.07;;;;;;;;;;5048261;28;36814;-79
2021/07/30 00:31:41;;;;;;;8.25;4.70;;;;;;;;;;5047295;28;38626;-79
2021/07/30 00:34:07;;;;;;;9.35;4.50;;;;;;;;;;5046446;28;38855;-79
2021/07/30 00:36:34;;;;;;;7.80;5.05;;;;;;;;;;5046506;28;38113;-79
2021/07/30 00:39:00;;;;;;;7.65;4.63;;;;;;;;;;5047117;28;37615;-79
2021/07/30 00:41:26;;;;;;;11.93;5.32;;;;;;;;;;5047452;28;47290;-79
2021/07/30 00:43:53;;;;;;;9.05;4.32;;;;;;;;;;5028896;28;38498;-79
2021/07/30 00:46:19;;;;;;;9.77;5.03;;;;;;;;;;5043839;28;38263;-79
2021/07/30 00:48:46;;;;;;;9.43;4.93;;;;;;;;;;5046662;28;38462;-79
2021/07/30 00:51:14;;;;;;;13.43;5.45;;;;;;;;;;5046846;28;38386;-79
2021/07/30 00:53:40;;;;;;;10.88;5.38;;;;;;;;;;5045938;28;39338;-79
2021/07/30 00:56:06;;;;;;;9.43;4.40;;;;;;;;;;5047233;28;39053;-79
2021/07/30 00:58:33;;;;;;;9.65;5.45;;;;;;;;;;5030300;28;37461;-79
2021/07/30 01:00:59;;;;;;;9.68;4.40;;;;;;;;;;5028588;28;39434;-79
2021/07/30 01:03:28;;;;;;;10.23;4.97;;;;;;;;;;5028600;28;39801;-80
2021/07/30 01:05:54;;;;;;;13.48;5.90;;;;;;;;;;5046529;28;39234;-79
2021/07/30 01:08:21;;;;;;;8.77;5.10;;;;;;;;;;5027786;28;35802;-79
2021/07/30 01:10:47;;;;;;;11.52;5.30;;;;;;;;;;5028848;28;38930;-79
2021/07/30 01:13:13;;;;;;;14.00;5.10;;;;;;;;;;5029194;28;38609;-79
2021/07/30 01:15:40;;;;;;;13.90;5.60;;;;;;;;;;5028805;28;38582;-79
2021/07/30 01:18:06;;;;;;;13.07;5.82;;;;;;;;;;5047146;28;37134;-79
2021/07/30 01:20:36;;;;;;;10.63;5.00;;;;;;;;;;5046869;28;39290;-79
2021/07/30 01:23:03;;;;;;;10.43;5.35;;;;;;;;;;5048204;28;38240;-78
2021/07/30 01:25:29;;;;;;;11.90;5.30;;;;;;;;;;5029690;28;38744;-79
2021/07/30 01:27:56;;;;;;;12.10;5.65;;;;;;;;;;5046275;28;37875;-79
2021/07/30 01:30:23;;;;;;;10.15;5.20;;;;;;;;;;5044350;28;40239;-79
2021/07/30 01:32:50;;;;;;;6.68;4.53;;;;;;;;;;5029750;28;39831;-79
2021/07/30 01:35:16;;;;;;;10.93;5.70;;;;;;;;;;5046447;28;39182;-79
2021/07/30 01:37:43;;;;;;;11.85;5.30;;;;;;;;;;5046373;28;37479;-79
2021/07/30 01:40:10;;;;;;;11.40;5.38;;;;;;;;;;5046336;28;39554;-80
2021/07/30 01:42:36;;;;;;;14.00;5.70;;;;;;;;;;5044410;28;39618;-79
2021/07/30 01:45:04;;;;;;;12.20;5.30;;;;;;;;;;5045419;28;38632;-78
2021/07/30 01:47:31;;;;;;;15.77;6.30;;;;;;;;;;5028175;28;47405;-79
2021/07/30 01:49:57;;;;;;;10.90;4.80;;;;;;;;;;5027566;28;37873;-79
2021/07/30 01:52:23;;;;;;;11.32;4.93;;;;;;;;;;5027589;28;38963;-79
2021/07/30 01:54:50;;;;;;;15.45;6.22;;;;;;;;;;5028492;28;38689;-79
2021/07/30 01:57:16;;;;;;;12.43;5.78;;;;;;;;;;5045002;28;36693;-79
2021/07/30 01:59:43;;;;;;;12.27;5.82;;;;;;;;;;5028540;28;40528;-79
2021/07/30 02:02:09;;;;;;;12.95;5.55;;;;;;;;;;5046198;28;38705;-79
2021/07/30 02:04:35;;;;;;;14.35;6.20;;;;;;;;;;5028016;28;36732;-79
2021/07/30 02:07:02;;;;;;;12.60;5.85;;;;;;;;;;5027336;28;37337;-78
2021/07/30 02:09:29;;;;;;;13.18;6.10;;;;;;;;;;5028334;28;40315;-79
2021/07/30 02:11:55;;;;;;;16.70;7.00;;;;;;;;;;5027531;28;38653;-79
2021/07/30 02:14:25;;;;;;;14.48;6.10;;;;;;;;;;5025235;28;38508;-79
2021/07/30 02:16:53;;;;;;;11.82;5.47;;;;;;;;;;5045371;28;36790;-79
2021/07/30 02:19:20;;;;;;;14.80;5.70;;;;;;;;;;5026697;28;39816;-79
2021/07/30 02:21:47;;;;;;;12.93;6.28;;;;;;;;;;5028107;28;39012;-79
2021/07/30 02:24:13;;;;;;;13.18;5.85;;;;;;;;;;5045870;28;38439;-79
2021/07/30 02:26:40;;;;;;;18.88;7.88;;;;;;;;;;5022701;28;37341;-79
2021/07/30 02:29:06;;;;;;;15.80;6.80;;;;;;;;;;5043809;28;40447;-79
2021/07/30 02:31:33;;;;;;;12.40;6.20;;;;;;;;;;5045654;28;39300;-79
2021/07/30 02:33:59;;;;;;;16.02;6.68;;;;;;;;;;5027709;28;38153;-79
2021/07/30 02:36:26;;;;;;;11.70;6.07;;;;;;;;;;5045147;28;37974;-79
2021/07/30 02:38:52;;;;;;;15.82;6.57;;;;;;;;;;5045222;28;38619;-79
2021/07/30 02:41:18;;;;;;;12.43;6.43;;;;;;;;;;5029908;28;38903;-80
2021/07/30 02:43:46;;;;;;;16.08;7.00;;;;;;;;;;5034894;28;38218;-79
2021/07/30 02:46:16;;;;;;;12.50;6.70;;;;;;;;;;5032949;28;37106;-79
2021/07/30 02:48:42;;;;;;;13.95;6.75;;;;;;;;;;5052558;28;39441;-79
2021/07/30 02:51:09;;;;;;;15.50;6.78;;;;;;;;;;5051023;28;39136;-79
2021/07/30 02:53:35;;;;;;;14.45;7.80;;;;;;;;;;5051995;28;38810;-78
2021/07/30 02:56:02;;;;;;;15.13;6.45;;;;;;;;;;5053500;28;37056;-79
2021/07/30 02:58:28;;;;;;;15.63;6.95;;;;;;;;;;5053656;28;48561;-79
2021/07/30 03:00:55;;;;;;;15.40;6.30;;;;;;;;;;5051767;28;39523;-79
2021/07/30 03:03:21;;;;;;;13.93;7.03;;;;;;;;;;5034508;28;38083;-79
2021/07/30 03:05:47;;;;;;;19.02;8.32;;;;;;;;;;5034522;28;38821;-79
2021/07/30 03:08:14;;;;;;;14.80;7.53;;;;;;;;;;5033973;28;39448;-79
2021/07/30 03:10:40;;;;;;;17.02;7.70;;;;;;;;;;5034315;28;39006;-79
2021/07/30 03:13:07;;;;;;;19.15;7.78;;;;;;;;;;5052191;28;38059;-80
2021/07/30 03:15:33;;;;;;;19.08;7.60;;;;;;;;;;5052542;28;36607;-80
2021/07/30 03:17:59;;;;;;;16.83;7.18;;;;;;;;;;5034583;28;39173;-79
2021/07/30 03:20:26;;;;;;;13.50;7.63;;;;;;;;;;5031768;28;38516;-79
2021/07/30 03:22:52;;;;;;;14.88;7.18;;;;;;;;;;5052783;28;38927;-80
2021/07/30 03:25:18;;;;;;;14.70;7.22;;;;;;;;;;5032117;28;38807;-79
2021/07/30 03:27:45;;;;;;;15.68;7.30;;;;;;;;;;5028587;28;39151;-79
2021/07/30 03:30:12;;;;;;;17.20;7.47;;;;;;;;;;5048821;28;39983;-79
2021/07/30 03:32:38;;;;;;;12.32;6.57;;;;;;;;;;5053405;28;38119;-79
2021/07/30 03:35:05;;;;;;;12.95;6.82;;;;;;;;;;5049320;28;38542;-77
2021/07/30 03:37:31;;;;;;;17.23;7.70;;;;;;;;;;5033386;28;48189;-79
2021/07/30 03:39:58;;;;;;;11.43;6.03;;;;;;;;;;5052555;28;38369;-79
2021/07/30 03:42:24;;;;;;;14.38;7.35;;;;;;;;;;5050031;28;37953;-79
2021/07/30 03:44:50;;;;;;;14.52;6.57;;;;;;;;;;5050380;28;37191;-79
2021/07/30 03:47:17;;;;;;;13.27;7.03;;;;;;;;;;5050024;28;39834;-79
2021/07/30 03:49:43;;;;;;;11.82;6.22;;;;;;;;;;5050466;28;39921;-79
2021/07/30 03:52:09;;;;;;;15.70;6.70;;;;;;;;;;5047591;28;36729;-79
2021/07/30 03:54:36;;;;;;;12.18;7.20;;;;;;;;;;5047817;28;37809;-79
2021/07/30 03:57:02;;;;;;;12.88;6.60;;;;;;;;;;5046602;28;39112;-78
2021/07/30 03:59:28;;;;;;;16.40;7.18;;;;;;;;;;5048706;28;39040;-79
2021/07/30 04:01:55;;;;;;;14.38;6.63;;;;;;;;;;5046804;28;39707;-79
2021/07/30 04:04:21;;;;;;;13.90;7.25;;;;;;;;;;5046931;28;37669;-79
2021/07/30 04:06:48;;;;;;;12.48;6.68;;;;;;;;;;5048738;28;38480;-79
2021/07/30 04:09:15;;;;;;;13.80;6.60;;;;;;;;;;5031071;28;38758;-79
2021/07/30 04:11:42;;;;;;;21.02;7.60;;;;;;;;;;5030221;28;39701;-79
2021/07/30 04:14:08;;;;;;;13.15;6.35;;;;;;;;;;5030906;28;37848;-79
2021/07/30 04:16:38;;;;;;;13.40;6.80;;;;;;;;;;5011288;28;40392;-79
2021/07/30 04:19:04;;;;;;;13.77;6.38;;;;;;;;;;5026815;28;38434;-79
2021/07/30 04:21:31;;;;;;;16.83;6.78;;;;;;;;;;5027896;28;39483;-79
2021/07/30 04:24:00;;;;;;;13.27;6.72;;;;;;;;;;5027282;28;38555;-80
2021/07/30 04:26:27;;;;;;;16.63;7.22;;;;;;;;;;5029101;28;41247;-79
2021/07/30 04:28:53;;;;;;;13.88;7.40;;;;;;;;;;5047048;28;39881;-79
2021/07/30 04:31:20;;;;;;;18.00;7.05;;;;;;;;;;5046266;28;38459;-79
2021/07/30 04:33:46;;;;;;;11.98;6.25;;;;;;;;;;5048596;28;37045;-79
2021/07/30 04:36:14;;;;;;;12.15;6.30;;;;;;;;;;5046428;28;38978;-79
2021/07/30 04:38:41;;;;;;;12.63;6.53;;;;;;;;;;5048391;28;39429;-79
2021/07/30 04:41:07;;;;;;;14.93;6.75;;;;;;;;;;5047104;28;38075;-79
2021/07/30 04:43:34;;;;;;;14.93;7.15;;;;;;;;;;5029260;28;36056;-79
2021/07/30 04:46:00;;;;;;;13.93;6.75;;;;;;;;;;5046815;28;38632;-79
2021/07/30 04:48:27;;;;;;;10.50;5.55;;;;;;;;;;5046264;28;38708;-79
2021/07/30 04:50:53;;;;;;;18.85;6.75;;;;;;;;;;5047379;28;37886;-79
2021/07/30 04:53:19;;;;;;;15.32;6.57;;;;;;;;;;5047220;28;37397;-79
2021/07/30 04:55:46;;;;;;;17.27;6.50;;;;;;;;;;5048336;28;38946;-79
2021/07/30 04:58:12;;;;;;;17.35;6.38;;;;;;;;;;5047637;28;38697;-79
2021/07/30 05:00:39;;;;;;;13.52;6.80;;;;;;;;;;5047307;28;38303;-79
2021/07/30 05:03:05;;;;;;;10.27;5.53;;;;;;;;;;5028088;28;36514;-79
2021/07/30 05:05:31;;;;;;;15.00;7.30;;;;;;;;;;5027425;28;38299;-79
2021/07/30 05:07:58;;;;;;;18.75;6.53;;;;;;;;;;5029274;28;39969;-79
2021/07/30 05:10:24;;;;;;;14.23;6.55;;;;;;;;;;5046438;28;39482;-79
2021/07/30 05:12:50;;;;;;;13.43;5.97;;;;;;;;;;5029169;28;37278;-79
2021/07/30 05:15:17;;;;;;;14.82;6.00;;;;;;;;;;5047166;28;39029;-79
2021/07/30 05:17:43;;;;;;;13.00;5.60;;;;;;;;;;5030080;28;38853;-79
2021/07/30 05:20:10;;;;;;;16.70;6.40;;;;;;;;;;5027571;28;38689;-79
2021/07/30 05:22:38;;;;;;;15.98;5.50;;;;;;;;;;5029384;28;37307;-79
2021/07/30 05:25:05;;;;;;;14.38;6.03;;;;;;;;;;5047097;28;39805;-78
2021/07/30 05:27:31;;;;;;;14.85;5.50;;;;;;;;;;5028152;28;37926;-79
2021/07/30 05:30:01;;;;;;;10.98;5.28;;;;;;;;;;5048082;28;38984;-79
2021/07/30 05:32:28;;;;;;;9.90;5.00;;;;;;;;;;5047659;28;36692;-78
2021/07/30 05:34:54;;;;;;;10.90;5.38;;;;;;;;;;5046830;28;40279;-79
2021/07/30 05:37:20;;;;;;;10.82;4.72;;;;;;;;;;5046473;28;38499;-79
2021/07/30 05:39:47;;;;;;;14.55;5.45;;;;;;;;;;5048098;28;37507;-79
2021/07/30 05:42:13;;;;;;;17.58;5.22;;;;;;;;;;5021238;28;37504;-79
2021/07/30 05:44:40;;;;;;;16.35;5.65;;;;;;;;;;5025794;28;39053;-79
2021/07/30 05:47:06;;;;;;;13.13;5.57;;;;;;;;;;5026030;28;38599;-79
2021/07/30 05:49:35;;;;;;;10.10;4.95;;;;;;;;;;5026936;28;38496;-79
2021/07/30 05:52:02;;;;;;;9.48;4.57;;;;;;;;;;5026389;28;36485;-78
2021/07/30 05:54:28;;;;;;;9.95;4.55;;;;;;;;;;5027693;28;39860;-79
2021/07/30 05:56:56;;;;;;;12.45;4.75;;;;;;;;;;5026249;28;39306;-79
2021/07/30 05:59:25;;;;;;;12.65;5.22;;;;;;;;;;5027246;28;38407;-79
2021/07/30 06:01:52;;;;;;;9.32;4.72;;;;;;;;;;5026382;28;38132;-78
2021/07/30 06:04:18;;;;;;;11.20;5.30;;;;;;;;;;5026330;28;39213;-77
2021/07/30 06:06:44;;;;;;;13.45;4.45;;;;;;;;;;5026271;28;39026;-78
2021/07/30 06:09:11;;;;;;;10.30;4.90;;;;;;;;;;5025677;28;37862;-78
2021/07/30 06:11:37;;;;;;;10.07;4.90;;;;;;;;;;5024790;28;38570;-78
2021/07/30 06:14:03;;;;;;;12.48;4.85;;;;;;;;;;5042162;28;39822;-78
2021/07/30 06:19:04;;;;;;;14.18;5.05;;;;;;;;;;5026667;28;20042;-78
2021/07/30 06:21:32;;;;;;;9.32;4.45;;;;;;;;;;5024972;28;38668;-78
2021/07/30 06:23:59;;;;;;;10.05;4.63;;;;;;;;;;5024890;28;39305;-79
2021/07/30 06:26:25;;;;;;;9.73;4.88;;;;;;;;;;5027843;28;39573;-79
2021/07/30 06:28:52;;;;;;;9.88;5.13;;;;;;;;;;5027521;28;39211;-78
2021/07/30 06:31:18;;;;;;;8.18;4.55;;;;;;;;;;5025469;28;36491;-78
2021/07/30 06:33:45;;;;;;;11.77;4.82;;;;;;;;;;5028862;28;38908;-79
2021/07/30 06:36:12;;;;;;;11.73;4.97;;;;;;;;;;5024957;28;38797;-79
2021/07/30 06:38:38;;;;;;;6.50;4.50;;;;;;;;;;5025981;28;38719;-78
2021/07/30 06:41:04;;;;;;;11.02;5.22;;;;;;;;;;5025307;28;37358;-79
2021/07/30 06:43:31;;;;;;;11.45;5.03;;;;;;;;;;5045222;28;39225;-79
2021/07/30 06:46:01;;;;;;;10.63;5.28;;;;;;;;;;5028633;28;38391;-79
2021/07/30 06:48:27;;;;;;;11.63;5.50;;;;;;;;;;5027115;28;48970;-79
2021/07/30 06:50:54;;;;;;;10.50;5.03;;;;;;;;;;5026357;28;38038;-79
2021/07/30 06:53:20;;;;;;;8.75;4.68;;;;;;;;;;5027210;28;39082;-79
2021/07/30 06:55:47;;;;;;;10.93;5.07;;;;;;;;;;5025783;28;39059;-79
2021/07/30 06:58:13;;;;;;;12.75;5.07;;;;;;;;;;5027429;28;37797;-79
2021/07/30 07:00:39;;;;;;;11.38;5.28;;;;;;;;;;5027980;28;37099;-79
2021/07/30 07:03:06;;;;;;;8.65;4.90;;;;;;;;;;5026970;28;39067;-79
2021/07/30 07:05:34;;;;;;;7.75;4.30;;;;;;;;;;5027140;28;39567;-79
2021/07/30 07:08:00;;;;;;;12.82;5.05;;;;;;;;;;5026711;28;38832;-79
2021/07/30 07:10:27;;;;;;;10.70;4.40;;;;;;;;;;5026692;28;38484;-79
2021/07/30 07:12:53;;;;;;;12.40;5.13;;;;;;;;;;5026683;28;39597;-79
2021/07/30 07:15:19;;;;;;;9.15;4.10;;;;;;;;;;5027980;28;38766;-79
2021/07/30 07:17:46;;;;;;;11.00;4.57;;;;;;;;;;5032216;28;39764;-79
2021/07/30 07:20:12;;;;;;;14.90;4.55;;;;;;;;;;5028193;28;37588;-79
2021/07/30 07:22:39;;;;;;;8.55;3.80;;;;;;;;;;5038365;28;39701;-79
2021/07/30 07:25:05;;;;;;;9.40;4.05;;;;;;;;;;5049287;28;39668;-77
2021/07/30 07:27:31;;;;;;;10.18;4.70;;;;;;;;;;5040436;28;38318;-78
2021/07/30 07:29:58;;;;;;;10.15;3.85;;;;;;;;;;5050897;28;36912;-78
2021/07/30 07:32:24;;;;;;;9.95;3.95;;;;;;;;;;5052931;28;38851;-78
2021/07/30 07:34:51;;;;;;;9.30;4.20;;;;;;;;;;5051964;28;38391;-78
2021/07/30 07:37:18;;;;;;;10.15;4.07;;;;;;;;;;5016951;28;39045;-78
2021/07/30 07:39:44;;;;;;;8.50;4.28;;;;;;;;;;5045739;28;36974;-79
2021/07/30 07:42:10;;;;;;;10.77;4.80;;;;;;;;;;5035923;28;39522;-79
2021/07/30 07:44:37;;;;;;;8.25;3.83;;;;;;;;;;5036908;28;39247;-79
2021/07/30 07:47:03;;;;;;;11.45;3.78;;;;;;;;;;5038174;28;38693;-79
2021/07/30 07:49:30;;;;;;;9.80;3.70;;;;;;;;;;5056574;28;37671;-79
2021/07/30 07:51:56;;;;;;;8.00;4.03;;;;;;;;;;5038747;28;37229;-78
2021/07/30 07:54:23;;;;;;;13.32;3.60;;;;;;;;;;5058194;28;39361;-80
2021/07/30 07:56:51;;;;;;;8.85;3.38;;;;;;;;;;5026611;28;39318;-80
2021/07/30 07:59:17;;;;;;;11.93;3.42;;;;;;;;;;5044954;28;36853;-79
2021/07/30 08:01:44;;;;;;;9.70;3.50;;;;;;;;;;5038687;28;39000;-80
2021/07/30 08:04:11;;;;;;;9.43;3.83;;;;;;;;;;5045741;28;38118;-80
2021/07/30 08:06:38;;;;;;;15.13;3.90;;;;;;;;;;5042477;28;37728;-79
2021/07/30 08:09:04;;;;;;;8.25;3.15;;;;;;;;;;5039418;28;37354;-79
2021/07/30 08:11:30;;;;;;;8.73;3.30;;;;;;;;;;5034289;28;39132;-79
2021/07/30 08:13:57;;;;;;;11.93;3.90;;;;;;;;;;5039052;28;39328;-80
2021/07/30 08:16:24;;;;;;;8.07;3.67;;;;;;;;;;5051475;28;39181;-79
2021/07/30 08:18:51;;;;;;;9.25;3.75;;;;;;;;;;5053382;28;37115;-79
2021/07/30 08:21:17;;;;;;;6.28;3.08;;;;;;;;;;5037879;28;37213;-80
2021/07/30 08:23:43;;;;;;;8.07;3.00;;;;;;;;;;5034824;28;38650;-79
2021/07/30 08:26:10;;;;;;;5.32;2.55;;;;;;;;;;5054949;28;38806;-80
2021/07/30 08:28:41;;;;;;;8.98;3.13;;;;;;;;;;5042998;28;36441;-80
2021/07/30 08:31:07;;;;;;;7.80;3.10;;;;;;;;;;5055431;28;38692;-80
2021/07/30 08:33:34;;;;;;;9.00;2.72;;;;;;;;;;5060763;28;39859;-80
2021/07/30 08:36:01;;;;;;;6.82;3.08;;;;;;;;;;5056968;28;36632;-81
2021/07/30 08:38:27;;;;;;;6.70;2.80;;;;;;;;;;5037290;28;45901;-80
2021/07/30 08:40:53;;;;;;;5.93;2.35;;;;;;;;;;5054960;28;38545;-80
2021/07/30 08:43:20;;;;;;;7.70;2.83;;;;;;;;;;5057480;28;37330;-80
2021/07/30 08:45:50;;;;;;;6.28;3.25;;;;;;;;;;5039567;28;38839;-80
2021/07/30 08:48:16;;;;;;;6.15;3.35;;;;;;;;;;5049838;28;35636;-79
2021/07/30 08:50:43;;;;;;;7.63;3.15;;;;;;;;;;5042598;28;38107;-80
2021/07/30 08:53:09;;;;;;;5.60;2.97;;;;;;;;;;5047303;28;38784;-79
2021/07/30 08:55:37;;;;;;;7.57;2.90;;;;;;;;;;5046474;28;39105;-80
2021/07/30 08:58:08;;;;;;;7.45;3.30;;;;;;;;;;5062912;28;37761;-79
2021/07/30 09:00:35;;;;;;;6.88;2.60;;;;;;;;;;5042463;28;39802;-80
2021/07/30 09:03:01;;;;;;;6.03;3.08;;;;;;;;;;5062718;28;38697;-80
2021/07/30 09:05:27;;;;;;;5.78;2.95;;;;;;;;;;5064673;28;46986;-80
2021/07/30 09:07:54;;;;;;;6.50;2.88;;;;;;;;;;5070427;28;38466;-80
2021/07/30 09:10:34;;;;;;;9.57;3.00;;;;;;;;;;5069365;28;40242;-80
2021/07/30 09:13:12;;;;;;;7.40;2.75;;;;;;;;;;5062931;28;38934;-79
2021/07/30 09:15:39;;;;;;;6.35;3.10;;;;;;;;;;5065345;28;46979;-80
2021/07/30 09:18:06;;;;;;;6.43;3.10;;;;;;;;;;5064990;28;37516;-80
2021/07/30 09:20:33;;;;;;;8.80;3.10;;;;;;;;;;5049899;28;39213;-80
2021/07/30 09:22:59;;;;;;;7.55;4.00;;;;;;;;;;5047969;28;37564;-80
2021/07/30 09:25:36;;;;;;;11.07;3.58;;;;;;;;;;5064616;28;38883;-80
2021/07/30 09:28:04;;;;;;;6.97;2.92;;;;;;;;;;5067027;28;37832;-77
2021/07/30 09:30:30;;;;;;;6.38;3.58;;;;;;;;;;5066655;28;39308;-80
2021/07/30 09:32:57;;;;;;;6.40;2.83;;;;;;;;;;5047141;28;37169;-80
2021/07/30 09:35:23;;;;;;;8.30;3.35;;;;;;;;;;5046010;28;37327;-80
2021/07/30 09:38:09;;;;;;;4.93;2.50;;;;;;;;;;5041321;28;37831;-79
2021/07/30 09:40:35;;;;;;;5.55;2.35;;;;;;;;;;5040729;28;47000;-79
2021/07/30 09:43:20;;;;;;;6.28;2.63;;;;;;;;;;5046457;28;38119;-76
2021/07/30 09:45:47;;;;;;;7.97;2.47;;;;;;;;;;5066072;28;39585;-80
2021/07/30 09:48:13;;;;;;;3.65;2.28;;;;;;;;;;5062469;28;37366;-80
2021/07/30 09:50:39;;;;;;;5.28;2.30;;;;;;;;;;5066539;28;39063;-80
2021/07/30 09:53:06;;;;;;;5.30;2.20;;;;;;;;;;5047682;28;37167;-79
2021/07/30 09:55:35;;;;;;;4.55;2.38;;;;;;;;;;5043946;28;37038;-79
2021/07/30 09:58:04;;;;;;;6.65;2.45;;;;;;;;;;5044321;28;35488;-80
2021/07/30 10:00:35;;;;;;;8.50;2.67;;;;;;;;;;5065590;28;49249;-80
2021/07/30 10:03:02;;;;;;;4.13;2.07;;;;;;;;;;5048228;28;37683;-78
2021/07/30 10:05:29;;;;;;;7.03;2.67;;;;;;;;;;5041291;28;36617;-80
2021/07/30 10:07:58;;;;;;;8.27;2.70;;;;;;;;;;5045632;28;37731;-80
2021/07/30 10:10:27;;;;;;;4.63;2.22;;;;;;;;;;5042336;28;37576;-80
2021/07/30 10:12:55;;;;;;;4.03;2.17;;;;;;;;;;5063311;28;38493;-80
2021/07/30 10:15:22;;;;;;;3.25;2.20;;;;;;;;;;5060557;28;38261;-80
2021/07/30 10:17:49;;;;;;;3.80;2.22;;;;;;;;;;5058066;28;35953;-80
2021/07/30 10:20:17;;;;;;;4.07;2.28;;;;;;;;;;5035044;28;38931;-81
2021/07/30 10:22:52;;;;;;;8.43;2.63;;;;;;;;;;5045760;28;38431;-80
2021/07/30 10:25:23;;;;;;;4.72;2.70;;;;;;;;;;5056468;28;38518;-79
2021/07/30 10:27:51;;;;;;;5.78;2.92;;;;;;;;;;5037436;28;35717;-79
2021/07/30 10:30:18;;;;;;;4.93;2.65;;;;;;;;;;5040713;28;40917;-80
2021/07/30 10:32:45;;;;;;;4.30;2.40;;;;;;;;;;5056565;28;39870;-80
2021/07/30 10:35:12;;;;;;;5.18;2.80;;;;;;;;;;5058254;28;38219;-79
2021/07/30 10:37:42;;;;;;;7.25;2.45;;;;;;;;;;5057352;28;38574;-79
2021/07/30 10:40:14;;;;;;;5.03;2.78;;;;;;;;;;5055312;28;39608;-79
2021/07/30 10:43:03;;;;;;;5.07;2.67;;;;;;;;;;5060451;28;38915;-79
2021/07/30 10:45:30;;;;;;;8.32;2.83;;;;;;;;;;5033726;28;47315;-79
2021/07/30 10:48:12;;;;;;;5.10;2.47;;;;;;;;;;5053372;28;36966;-79
2021/07/30 10:50:47;;;;;;;5.28;2.35;;;;;;;;;;5053701;28;46963;-79
2021/07/30 10:53:32;;;;;;;5.97;2.88;;;;;;;;;;5056328;28;39602;-79
2021/07/30 10:56:00;;;;;;;5.43;2.60;;;;;;;;;;5061385;28;38764;-80
2021/07/30 10:58:42;;;;;;;3.35;2.60;;;;;;;;;;5039576;28;37256;-80
2021/07/30 11:01:08;;;;;;;5.72;2.78;;;;;;;;;;5058153;28;38835;-79
2021/07/30 11:03:53;;;;;;;2.88;2.25;;;;;;;;;;5038258;28;39663;-79
2021/07/30 11:06:19;;;;;;;4.13;2.63;;;;;;;;;;5035525;28;39173;-80
2021/07/30 11:09:02;;;;;;;3.92;2.00;;;;;;;;;;5043516;28;36354;-79
2021/07/30 11:11:28;;;;;;;;;;;;;;;;;;5056713;28;48792;-80
2021/07/30 11:13:55;;;;;;;5.53;2.60;;;;;;;;;;5041891;28;39866;-79
2021/07/30 11:16:24;;;;;;;6.55;2.90;;;;;;;;;;5038062;28;38307;-78
2021/07/30 11:18:52;;;;;;;3.35;2.53;;;;;;;;;;5058955;28;37971;-79
2021/07/30 11:21:19;;;;;;;7.00;2.88;;;;;;;;;;5041960;28;38591;-80
2021/07/30 11:23:45;;;;;;;5.97;3.50;;;;;;;;;;5039112;28;38913;-79
2021/07/30 11:26:12;;;;;;;3.67;2.75;;;;;;;;;;5035510;28;38215;-79
2021/07/30 11:28:39;;;;;;;5.53;2.92;;;;;;;;;;5036903;28;36779;-79
2021/07/30 11:31:05;;;;;;;4.00;2.72;;;;;;;;;;5034876;28;38250;-79
2021/07/30 11:33:32;;;;;;;6.35;3.45;;;;;;;;;;5034049;28;37857;-79
2021/07/30 11:36:09;;;;;;;8.63;3.70;;;;;;;;;;5015892;28;39390;-79
2021/07/30 11:38:53;;;;;;;4.50;3.30;;;;;;;;;;5033055;28;47392;-79
2021/07/30 11:41:20;;;;;;;6.65;3.70;;;;;;;;;;5014819;28;39181;-80
2021/07/30 11:44:08;;;;;;;3.50;3.10;;;;;;;;;;5015935;28;39108;-79
2021/07/30 11:46:35;;;;;;;6.95;3.47;;;;;;;;;;5012834;28;47126;-78
2021/07/30 11:49:03;;;;;;;6.32;4.13;;;;;;;;;;5034982;28;37620;-77
2021/07/30 11:51:29;;;;;;;7.55;3.50;;;;;;;;;;5032416;28;40377;-78
2021/07/30 11:53:56;;;;;;;7.97;3.85;;;;;;;;;;5015749;28;39229;-79
2021/07/30 11:56:24;;;;;;;5.05;4.50;;;;;;;;;;5029973;28;38645;-78
2021/07/30 11:58:57;;;;;;;5.68;3.72;;;;;;;;;;5034563;28;37204;-79
2021/07/30 12:01:23;;;;;;;4.90;3.30;;;;;;;;;;5030490;28;39849;-79
2021/07/30 12:04:09;;;;;;;4.68;3.40;;;;;;;;;;5036254;28;38613;-79
2021/07/30 12:06:37;;;;;;;5.40;3.65;;;;;;;;;;5031593;28;47216;-79
2021/07/30 12:09:04;;;;;;;5.85;4.22;;;;;;;;;;5016479;28;37415;-78
2021/07/30 12:11:31;;;;;;;6.03;4.72;;;;;;;;;;5044018;28;39123;-79
2021/07/30 12:13:57;;;;;;;6.40;4.45;;;;;;;;;;5050841;28;39674;-79
2021/07/30 12:16:23;;;;;;;6.32;4.63;;;;;;;;;;5045925;28;39900;-79
2021/07/30 12:18:50;;;;;;;5.35;4.22;;;;;;;;;;5029355;28;37133;-79
2021/07/30 12:21:16;;;;;;;7.55;5.55;;;;;;;;;;5031916;28;39159;-78
2021/07/30 12:23:43;;;;;;;6.90;5.78;;;;;;;;;;5033239;28;39710;-79
2021/07/30 12:26:28;;;;;;;7.55;5.30;;;;;;;;;;5029533;28;38378;-79
2021/07/30 12:28:54;;;;;;;8.35;6.35;;;;;;;;;;5031371;28;37174;-78
2021/07/30 12:31:21;;;;;;;8.80;6.75;;;;;;;;;;5045639;28;39636;-78
2021/07/30 12:33:48;;;;;;;9.35;6.22;;;;;;;;;;5033274;28;39085;-80
2021/07/30 12:36:15;;;;;;;9.70;7.05;;;;;;;;;;5048482;28;36819;-79
2021/07/30 12:38:59;;;;;;;9.25;8.30;;;;;;;;;;5037618;28;37433;-79
2021/07/30 12:41:26;;;;;;;9.60;7.85;;;;;;;;;;5055169;28;38231;-80
2021/07/30 12:43:53;;;;;;;12.70;8.88;;;;;;;;;;5046097;28;38351;-80
2021/07/30 12:46:32;;;;;;;12.20;9.43;;;;;;;;;;5060076;28;37146;-80
2021/07/30 12:48:59;;;;;;;13.00;9.40;;;;;;;;;;5048510;28;37462;-79
2021/07/30 12:51:26;;;;;;;14.07;10.35;;;;;;;;;;5063704;28;37496;-79
2021/07/30 12:54:09;;;;;;;13.70;10.02;;;;;;;;;;5060647;28;38459;-79
2021/07/30 12:56:55;;;;;;;11.23;9.95;;;;;;;;;;5041713;28;47237;-80
2021/07/30 12:59:40;;;;;;;12.98;10.40;;;;;;;;;;5060880;28;36874;-80
2021/07/30 13:02:07;;;;;;;11.88;10.55;;;;;;;;;;5048454;28;40016;-79
2021/07/30 13:04:33;;;;;;;13.43;11.25;;;;;;;;;;5052252;28;38573;-79
2021/07/30 13:07:01;;;;;;;12.15;9.93;;;;;;;;;;5054221;28;37043;-80
2021/07/30 13:09:27;;;;;;;13.63;11.23;;;;;;;;;;5057338;28;47625;-80
2021/07/30 13:11:53;;;;;;;11.05;8.77;;;;;;;;;;5057266;28;38604;-80
2021/07/30 13:14:20;;;;;;;9.15;8.07;;;;;;;;;;5061487;28;37129;-78
2021/07/30 13:16:46;;;;;;;9.57;7.57;;;;;;;;;;5060359;28;37086;-81
2021/07/30 13:19:13;;;;;;;7.75;6.95;;;;;;;;;;5051691;28;37030;-78
2021/07/30 13:21:39;;;;;;;10.68;6.65;;;;;;;;;;5058943;28;40003;-78
2021/07/30 13:24:06;;;;;;;5.95;5.13;;;;;;;;;;5049272;28;37216;-78
2021/07/30 13:26:33;;;;;;;5.85;4.85;;;;;;;;;;5036547;28;37161;-81
2021/07/30 13:28:59;;;;;;;6.82;5.13;;;;;;;;;;5060151;28;36949;-79
2021/07/30 13:31:25;;;;;;;5.10;4.38;;;;;;;;;;5059854;28;39923;-79
2021/07/30 13:33:52;;;;;;;6.40;4.95;;;;;;;;;;5068691;28;39072;-81
2021/07/30 13:36:18;;;;;;;5.00;4.47;;;;;;;;;;5070823;28;39538;-79
2021/07/30 13:38:46;;;;;;;4.95;3.80;;;;;;;;;;5070891;28;36832;-74
2021/07/30 13:41:12;;;;;;;5.18;4.13;;;;;;;;;;5066049;28;38504;-79
2021/07/30 13:43:43;;;;;;;4.70;3.58;;;;;;;;;;5068012;28;39040;-79
2021/07/30 13:46:20;;;;;;;5.05;3.63;;;;;;;;;;5071222;28;37207;-79
2021/07/30 13:48:49;;;;;;;4.78;3.67;;;;;;;;;;5069416;28;35863;-80
2021/07/30 13:51:17;;;;;;;3.92;3.40;;;;;;;;;;5067422;28;39102;-80
2021/07/30 13:53:43;;;;;;;5.00;3.70;;;;;;;;;;5066888;28;37556;-79
2021/07/30 13:56:10;;;;;;;7.90;3.88;;;;;;;;;;5067945;28;38651;-79
2021/07/30 13:58:36;;;;;;;4.97;3.42;;;;;;;;;;5059438;28;35714;-79
2021/07/30 14:01:03;;;;;;;6.43;4.20;;;;;;;;;;5041257;28;39160;-79
2021/07/30 14:03:29;;;;;;;4.35;3.63;;;;;;;;;;5059969;28;39884;-79
2021/07/30 14:05:56;;;;;;;6.57;3.97;;;;;;;;;;5042816;28;36944;-79
2021/07/30 14:08:22;;;;;;;22.33;4.60;;;;;;;;;;5046008;28;35970;-79
2021/07/30 14:10:49;;;;;;;4.03;3.63;;;;;;;;;;5065952;28;39412;-80
2021/07/30 14:13:15;;;;;;;5.95;4.45;;;;;;;;;;5042413;28;36832;-78
2021/07/30 14:15:42;;;;;;;3.58;2.75;;;;;;;;;;5036212;28;39570;-78
2021/07/30 14:18:09;;;;;;;5.13;1.73;;;;;;;;;;5047160;28;38114;-79
2021/07/30 14:20:36;;;;;;;2.03;1.70;;;;;;;;;;5030888;28;37925;-80
2021/07/30 14:23:03;;;;;;;5.28;1.95;;;;;;;;;;5035453;28;39121;-76
2021/07/30 14:25:30;;;;;;;6.55;2.50;;;;;;;;;;5036772;28;37355;-78
2021/07/30 14:27:56;;;;;;;4.40;1.70;;;;;;;;;;5063953;28;38362;-79
2021/07/30 14:30:23;;;;;;;5.93;2.35;;;;;;;;;;5046313;28;39978;-80
2021/07/30 14:32:49;;;;;;;5.57;1.90;;;;;;;;;;5068644;28;39634;-80
2021/07/30 14:35:16;;;;;;;3.72;1.50;;;;;;;;;;5064759;28;37003;-80
2021/07/30 14:37:42;;;;;;;5.75;1.77;;;;;;;;;;5066627;28;36557;-80
2021/07/30 14:40:09;;;;;;;7.00;1.60;;;;;;;;;;5065818;28;39838;-80
2021/07/30 14:42:37;;;;;;;4.20;1.17;;;;;;;;;;5066504;28;39386;-80